Lickburg, Kentucky
Current Conditions -  °F | °C
As of 12:53 PM on Saturday 20 Dec 2014 (Local Time) from KJKL Reporting Station
Broken Clouds Broken Clouds  
Wind Chill: 37°   Ceiling: 6000
Heat Index: 37°   Visibility: 10mi
Dew Point: 26°   Wind: 0mph
Humidity: 65%   Direction: NA
Pressure: 30.2"   Gusts: NA
Location:  37.7261°N, 83.0786°W
Report Text: KJKL 201753Z AUTO 00000KT 10SM BKN060 03/M03 A3020 RMK AO2 SLP238 T00281033 10028 21028 58011
Loading
Personal Weather Stations






























Interactive Weather Map New forecast layout! Learn more

10-Day Weather Forecast

Advertisements
Track Severe Weather on mobile